Time;durP1;ratioP1;P1;durP2;ratioP2;P2;SDS_P1;SDS_P2;PMS_P1;PMS_P2;Temp;Humidity;BMP_temperature;BMP_pressure;BME280_temperature;BME280_humidity;BME280_pressure;Samples;Min_cycle;Max_cycle;Signal;HPM_P1;HPM_P2
2022/10/02 00:02:17;;;;;;;13.00;11.70;;;25.20;99.90;;;;;;4956938;28;20202;-92
2022/10/02 00:04:56;;;;;;;13.23;11.83;;;25.20;99.90;;;;;;4957030;28;20238;-93
2022/10/02 00:07:35;;;;;;;13.17;11.60;;;25.20;99.90;;;;;;4957343;28;20238;-92
2022/10/02 00:10:15;;;;;;;14.60;11.50;;;25.10;99.90;;;;;;4958312;28;20207;-92
2022/10/02 00:12:48;;;;;;;13.67;12.03;;;25.10;99.90;;;;;;4958786;28;20207;-92
2022/10/02 00:15:25;;;;;;;14.17;12.20;;;24.90;99.90;;;;;;4957902;28;20246;-91
2022/10/02 00:18:01;;;;;;;14.97;11.43;;;24.80;99.90;;;;;;4958475;28;20694;-92
2022/10/02 00:20:40;;;;;;;14.43;11.93;;;24.70;99.90;;;;;;4958061;28;20265;-92
2022/10/02 00:23:17;;;;;;;14.50;11.17;;;24.50;99.90;;;;;;4958090;28;20218;-92
2022/10/02 00:25:57;;;;;;;15.50;11.67;;;24.30;99.90;;;;;;4958391;28;20218;-91
2022/10/02 00:28:32;;;;;;;17.37;12.73;;;24.10;99.90;;;;;;4958297;28;20220;-92
2022/10/02 00:31:29;;;;;;;12.00;10.60;;;24.00;99.90;;;;;;4959310;28;20203;-92
2022/10/02 00:34:10;;;;;;;12.67;11.20;;;23.90;99.90;;;;;;4964347;28;20229;-92
2022/10/02 00:36:53;;;;;;;15.90;11.53;;;23.80;99.90;;;;;;4976101;28;20287;-92
2022/10/02 00:39:37;;;;;;;13.37;11.97;;;23.70;99.90;;;;;;4975418;28;20205;-92
2022/10/02 00:42:29;;;;;;;15.00;11.77;;;23.60;99.90;;;;;;4966743;28;20239;-92
2022/10/02 00:45:51;;;;;;;14.13;11.73;;;23.50;99.90;;;;;;4960063;28;20211;-93
2022/10/02 00:48:44;;;;;;;17.87;11.47;;;23.40;99.90;;;;;;4960693;28;20267;-92
2022/10/02 00:51:25;;;;;;;13.33;11.50;;;23.40;99.90;;;;;;4957469;28;20215;-92
2022/10/02 00:54:06;;;;;;;13.37;11.33;;;23.30;99.90;;;;;;4956168;28;20208;-93
2022/10/02 00:56:43;;;;;;;14.57;11.40;;;23.20;99.90;;;;;;4959573;28;20684;-92
2022/10/02 00:59:36;;;;;;;12.77;11.30;;;23.10;99.90;;;;;;4956523;28;20249;-92
2022/10/02 01:02:12;;;;;;;16.00;11.47;;;23.00;99.90;;;;;;4956749;29;20208;-92
2022/10/02 01:04:43;;;;;;;16.10;12.20;;;22.80;99.90;;;;;;4959220;28;20208;-92
2022/10/02 01:07:14;;;;;;;12.83;11.47;;;22.70;99.90;;;;;;4957614;29;20212;-92
2022/10/02 01:09:48;;;;;;;16.93;11.53;;;22.60;99.90;;;;;;4955700;29;20571;-92
2022/10/02 01:12:19;;;;;;;12.83;10.90;;;22.50;99.90;;;;;;4955606;28;20290;-92
2022/10/02 01:14:51;;;;;;;13.23;11.40;;;22.40;99.90;;;;;;4956644;28;20235;-90
2022/10/02 01:17:25;;;;;;;13.27;11.90;;;22.40;99.90;;;;;;4955744;28;20203;-91
2022/10/02 01:19:57;;;;;;;15.07;11.23;;;22.30;99.90;;;;;;4956335;28;20217;-91
2022/10/02 01:22:36;;;;;;;14.23;10.77;;;22.10;99.90;;;;;;4955754;28;20211;-92
2022/10/02 01:25:10;;;;;;;12.43;10.77;;;22.00;99.90;;;;;;4955964;28;20216;-92
2022/10/02 01:27:42;;;;;;;14.50;11.17;;;21.90;99.90;;;;;;4955850;28;20587;-92
2022/10/02 01:30:15;;;;;;;14.53;10.50;;;21.80;99.90;;;;;;4955709;28;20215;-91
2022/10/02 01:32:51;;;;;;;16.93;11.67;;;21.70;99.90;;;;;;4955152;28;20273;-92
2022/10/02 01:35:23;;;;;;;14.23;11.40;;;21.60;99.90;;;;;;4955814;28;20599;-92
2022/10/02 01:37:56;;;;;;;12.83;10.97;;;21.40;99.90;;;;;;4955865;28;20212;-91
2022/10/02 01:40:31;;;;;;;14.60;11.17;;;21.30;99.90;;;;;;4955671;28;20238;-92
2022/10/02 01:43:05;;;;;;;13.87;11.63;;;21.20;99.90;;;;;;4955900;28;20551;-92
2022/10/02 01:45:59;;;;;;;13.67;10.30;;;21.10;99.90;;;;;;4955742;28;20221;-92
2022/10/02 01:48:45;;;;;;;15.93;10.17;;;21.00;99.90;;;;;;4945907;29;20208;-91
2022/10/02 01:51:55;;;;;;;12.73;10.60;;;20.80;99.90;;;;;;4936764;29;20239;-92
2022/10/02 01:54:37;;;;;;;13.93;10.27;;;20.70;99.90;;;;;;4929252;29;20216;-92
2022/10/02 01:57:25;;;;;;;13.63;10.73;;;20.60;99.90;;;;;;4936697;29;20220;-92
2022/10/02 02:00:06;;;;;;;11.90;9.80;;;20.50;99.90;;;;;;4937469;29;20228;-91
2022/10/02 02:02:49;;;;;;;11.70;10.00;;;20.40;99.90;;;;;;4939739;29;20219;-92
2022/10/02 02:05:33;;;;;;;15.93;10.70;;;20.40;99.90;;;;;;4939962;29;20212;-92
2022/10/02 02:08:11;;;;;;;12.97;10.03;;;20.30;99.90;;;;;;4939987;29;20327;-91
2022/10/02 02:10:53;;;;;;;19.27;11.17;;;20.20;99.90;;;;;;4941313;29;20219;-91
2022/10/02 02:13:31;;;;;;;17.27;11.17;;;20.10;99.90;;;;;;4939121;29;20209;-92
2022/10/02 02:16:07;;;;;;;18.87;11.27;;;20.00;99.90;;;;;;4940004;29;20246;-92
2022/10/02 02:18:44;;;;;;;14.57;10.50;;;19.90;99.90;;;;;;4941606;29;20208;-91
2022/10/02 02:21:21;;;;;;;12.70;10.43;;;19.80;99.90;;;;;;4942982;28;20251;-91
2022/10/02 02:23:55;;;;;;;14.73;11.07;;;19.70;99.90;;;;;;4941277;29;20274;-92
2022/10/02 02:26:29;;;;;;;14.47;10.63;;;19.60;99.90;;;;;;4940042;29;20219;-92
2022/10/02 02:29:06;;;;;;;15.57;10.40;;;19.50;99.90;;;;;;4940074;29;20212;-92
2022/10/02 02:31:41;;;;;;;15.07;10.60;;;19.40;99.90;;;;;;4939687;29;20239;-93
2022/10/02 02:34:16;;;;;;;14.53;10.37;;;19.30;99.90;;;;;;4943112;29;20227;-91
2022/10/02 02:36:50;;;;;;;14.10;10.87;;;19.20;99.90;;;;;;4941653;29;20240;-90
2022/10/02 02:39:28;;;;;;;12.43;10.53;;;19.20;99.90;;;;;;4939925;29;20223;-90
2022/10/02 02:42:03;;;;;;;14.80;11.40;;;19.10;99.90;;;;;;4956128;29;20219;-92
2022/10/02 02:44:41;;;;;;;11.10;9.93;;;19.00;99.90;;;;;;4958367;28;20207;-91
2022/10/02 02:47:17;;;;;;;11.37;10.20;;;19.00;99.90;;;;;;4958521;28;20211;-91
2022/10/02 02:49:55;;;;;;;14.03;10.37;;;18.90;99.90;;;;;;4958592;28;20211;-92
2022/10/02 02:52:30;;;;;;;12.37;9.70;;;18.80;99.90;;;;;;4957856;28;21053;-92
2022/10/02 02:55:07;;;;;;;12.13;10.10;;;18.70;99.90;;;;;;4958115;28;20203;-91
2022/10/02 02:57:44;;;;;;;10.87;9.57;;;18.70;99.90;;;;;;4958261;28;20211;-89
2022/10/02 03:00:20;;;;;;;10.47;9.00;;;18.60;99.90;;;;;;4957018;29;20207;-92
2022/10/02 03:02:53;;;;;;;13.70;9.73;;;18.60;99.90;;;;;;4956938;28;20621;-92
2022/10/02 03:05:26;;;;;;;11.13;9.93;;;18.60;99.90;;;;;;4957796;28;20215;-91
2022/10/02 03:08:00;;;;;;;11.43;9.27;;;18.50;99.90;;;;;;4958324;28;20632;-92
2022/10/02 03:10:41;;;;;;;11.40;10.17;;;18.50;99.90;;;;;;4957938;28;20215;-92
2022/10/02 03:13:25;;;;;;;10.83;9.17;;;18.50;99.90;;;;;;4956592;28;20212;-92
2022/10/02 03:16:14;;;;;;;12.90;9.30;;;18.40;99.90;;;;;;4956727;29;20238;-92
2022/10/02 03:19:03;;;;;;;10.60;9.50;;;18.30;99.90;;;;;;4957916;28;20210;-92
2022/10/02 03:21:40;;;;;;;12.13;9.77;;;18.30;99.90;;;;;;4957875;28;20218;-91
2022/10/02 03:24:18;;;;;;;11.27;9.43;;;18.20;99.90;;;;;;4958088;28;20212;-91
2022/10/02 03:26:58;;;;;;;12.87;9.73;;;18.10;99.90;;;;;;4957434;28;20664;-91
2022/10/02 03:29:34;;;;;;;14.13;9.43;;;18.10;99.90;;;;;;4957422;28;20207;-92
2022/10/02 03:32:09;;;;;;;11.27;9.83;;;18.00;99.90;;;;;;4956535;28;20208;-91
2022/10/02 03:34:41;;;;;;;10.17;9.17;;;17.90;99.90;;;;;;4956565;29;20233;-91
2022/10/02 03:37:12;;;;;;;11.23;9.80;;;17.90;99.90;;;;;;4957371;28;20601;-91
2022/10/02 03:39:45;;;;;;;13.13;9.47;;;17.80;99.90;;;;;;4958089;28;20641;-92
2022/10/02 03:42:17;;;;;;;10.53;9.43;;;17.80;99.90;;;;;;4958627;28;20214;-90
2022/10/02 03:44:48;;;;;;;11.93;8.70;;;17.70;99.90;;;;;;4960490;28;20216;-91
2022/10/02 03:47:21;;;;;;;13.73;9.60;;;17.70;99.90;;;;;;4959327;28;20212;-91
2022/10/02 03:49:52;;;;;;;12.20;9.43;;;17.60;99.90;;;;;;4957440;28;20218;-91
2022/10/02 03:52:24;;;;;;;10.43;8.97;;;17.50;99.90;;;;;;4955117;28;20208;-91
2022/10/02 03:54:58;;;;;;;12.50;9.03;;;17.50;99.90;;;;;;4957980;28;20762;-90
2022/10/02 03:57:33;;;;;;;12.20;9.13;;;17.40;99.90;;;;;;4956354;28;20696;-91
2022/10/02 04:00:08;;;;;;;11.43;9.13;;;17.30;99.90;;;;;;4955409;29;20207;-91
2022/10/02 04:02:44;;;;;;;10.37;8.90;;;17.30;99.90;;;;;;4956093;28;20577;-91
2022/10/02 04:05:21;;;;;;;11.57;10.03;;;17.30;99.90;;;;;;4956756;28;20215;-91
2022/10/02 04:07:57;;;;;;;11.27;9.63;;;17.20;99.90;;;;;;4955445;29;20629;-91
2022/10/02 04:10:35;;;;;;;14.20;9.03;;;17.10;99.90;;;;;;4955291;29;20287;-92
2022/10/02 04:13:12;;;;;;;11.03;9.70;;;17.20;99.90;;;;;;4956116;28;20215;-91
2022/10/02 04:15:56;;;;;;;12.93;9.53;;;17.10;99.90;;;;;;4956878;28;20215;-92
2022/10/02 04:18:34;;;;;;;14.73;10.63;;;17.10;99.90;;;;;;4955778;29;20203;-91
2022/10/02 04:21:11;;;;;;;12.80;10.70;;;17.00;99.90;;;;;;4956403;28;20211;-92
2022/10/02 04:23:47;;;;;;;12.50;9.80;;;17.00;99.90;;;;;;4955289;28;20588;-92
2022/10/02 04:26:25;;;;;;;10.10;9.10;;;16.90;99.90;;;;;;4956592;28;20212;-91
2022/10/02 04:29:03;;;;;;;14.17;9.50;;;16.90;99.90;;;;;;4955475;29;20192;-91
2022/10/02 04:31:34;;;;;;;10.63;8.80;;;16.80;99.90;;;;;;4956440;28;20223;-90
2022/10/02 04:34:14;;;;;;;12.03;9.53;;;16.80;99.90;;;;;;4954745;28;20235;-92
2022/10/02 04:37:10;;;;;;;10.97;9.37;;;16.80;99.90;;;;;;4939536;29;20238;-90
2022/10/02 04:39:55;;;;;;;10.53;9.33;;;16.70;99.90;;;;;;4939205;29;20200;-92
2022/10/02 04:42:39;;;;;;;12.20;9.63;;;16.60;99.90;;;;;;4937333;29;20223;-91
2022/10/02 04:45:37;;;;;;;11.53;9.80;;;16.60;99.90;;;;;;4939008;29;20216;-90
2022/10/02 04:48:40;;;;;;;11.07;8.83;;;16.60;99.90;;;;;;4937343;29;20212;-90
2022/10/02 04:51:28;;;;;;;10.63;9.53;;;16.50;99.90;;;;;;4936336;29;20565;-91
2022/10/02 04:54:13;;;;;;;12.67;8.57;;;16.50;99.90;;;;;;4938841;28;20238;-90
2022/10/02 04:56:59;;;;;;;11.03;9.53;;;16.50;99.90;;;;;;4940112;29;20732;-92
2022/10/02 04:59:46;;;;;;;10.33;8.47;;;16.40;99.90;;;;;;4936915;29;20216;-92
2022/10/02 05:02:32;;;;;;;11.30;8.50;;;16.40;99.90;;;;;;4941808;29;20204;-91
2022/10/02 05:05:36;;;;;;;10.13;8.40;;;16.30;99.90;;;;;;4958386;28;20211;-92
2022/10/02 05:08:25;;;;;;;10.13;8.73;;;16.30;99.90;;;;;;4957505;28;20214;-90
2022/10/02 05:11:17;;;;;;;9.87;8.60;;;16.20;99.90;;;;;;4956104;28;20222;-90
2022/10/02 05:14:12;;;;;;;9.90;8.67;;;16.20;99.90;;;;;;4955151;28;20208;-91
2022/10/02 05:17:05;;;;;;;11.73;8.50;;;16.20;99.90;;;;;;4955009;28;20235;-92
2022/10/02 05:19:58;;;;;;;10.40;8.00;;;16.20;99.90;;;;;;4955983;28;20303;-92
2022/10/02 05:22:53;;;;;;;11.87;8.50;;;16.10;99.90;;;;;;4954540;28;20317;-92
2022/10/02 05:25:54;;;;;;;12.63;8.17;;;16.10;99.90;;;;;;4955237;29;20208;-91
2022/10/02 05:28:57;;;;;;;10.97;8.33;;;16.10;99.90;;;;;;4944190;29;20207;-91
2022/10/02 05:31:42;;;;;;;10.97;8.23;;;16.00;99.90;;;;;;4956867;28;20215;-91
2022/10/02 05:34:33;;;;;;;9.70;8.70;;;16.00;99.90;;;;;;4954894;29;20207;-92
2022/10/02 05:37:22;;;;;;;12.50;8.80;;;15.90;99.90;;;;;;4960696;28;20249;-91
2022/10/02 05:40:02;;;;;;;9.30;8.00;;;15.90;99.90;;;;;;4959935;28;20226;-91
2022/10/02 05:42:39;;;;;;;10.03;8.33;;;15.90;99.90;;;;;;4959613;28;20759;-91
2022/10/02 05:45:20;;;;;;;10.33;7.27;;;15.90;99.90;;;;;;4967461;28;20218;-91
2022/10/02 05:47:54;;;;;;;8.67;7.63;;;15.80;99.90;;;;;;4963674;28;20211;-91
2022/10/02 05:50:31;;;;;;;8.50;7.60;;;15.80;99.90;;;;;;4965953;28;20613;-90
2022/10/02 05:53:08;;;;;;;8.80;7.70;;;15.70;99.90;;;;;;4959747;28;20203;-91
2022/10/02 05:55:45;;;;;;;10.57;7.63;;;15.70;99.90;;;;;;4959068;29;20219;-92
2022/10/02 05:58:22;;;;;;;8.33;7.40;;;15.70;99.90;;;;;;4960745;28;20238;-91
2022/10/02 06:00:57;;;;;;;8.90;7.10;;;15.70;99.90;;;;;;4962003;29;20567;-91
2022/10/02 06:03:34;;;;;;;10.03;7.60;;;15.60;99.90;;;;;;4969469;29;20215;-90
2022/10/02 06:06:12;;;;;;;7.93;7.13;;;15.60;99.90;;;;;;4977110;28;20979;-91
2022/10/02 06:08:47;;;;;;;7.97;6.80;;;15.60;99.90;;;;;;4974065;28;20235;-92
2022/10/02 06:11:24;;;;;;;8.90;7.60;;;15.60;99.90;;;;;;4966859;28;20206;-91
2022/10/02 06:14:01;;;;;;;8.63;6.90;;;15.60;99.90;;;;;;4961270;28;20214;-90
2022/10/02 06:16:40;;;;;;;7.33;6.40;;;15.50;99.90;;;;;;4961681;28;20211;-91
2022/10/02 06:19:18;;;;;;;7.47;6.70;;;15.50;99.90;;;;;;4960611;28;20218;-91
2022/10/02 06:21:53;;;;;;;12.37;7.83;;;15.50;99.90;;;;;;4958560;28;20211;-91
2022/10/02 06:24:30;;;;;;;8.07;7.27;;;15.50;99.90;;;;;;4961065;28;20207;-90
2022/10/02 06:27:05;;;;;;;9.23;7.33;;;15.50;99.90;;;;;;4959304;28;20212;-91
2022/10/02 06:29:43;;;;;;;13.20;8.67;;;15.40;99.90;;;;;;4962869;28;20289;-91
2022/10/02 06:32:20;;;;;;;8.77;7.27;;;15.40;99.90;;;;;;4958470;28;20683;-90
2022/10/02 06:34:52;;;;;;;8.17;7.07;;;15.40;99.90;;;;;;4957211;29;20226;-91
2022/10/02 06:37:36;;;;;;;8.43;6.93;;;15.40;99.90;;;;;;4959160;28;20611;-91
2022/10/02 06:40:44;;;;;;;7.43;6.70;;;15.30;99.90;;;;;;4958486;28;20211;-91
2022/10/02 06:43:40;;;;;;;7.83;6.30;;;15.30;99.90;;;;;;4957804;28;20219;-90
2022/10/02 06:46:25;;;;;;;8.27;6.30;;;15.30;99.90;;;;;;4957947;28;20199;-91
2022/10/02 06:49:03;;;;;;;9.10;6.77;;;15.30;99.90;;;;;;4958340;28;20208;-90
2022/10/02 06:51:55;;;;;;;7.73;6.50;;;15.20;99.90;;;;;;4958605;28;20203;-89
2022/10/02 06:54:50;;;;;;;8.27;6.50;;;15.20;99.90;;;;;;4958402;28;20226;-90
2022/10/02 06:57:44;;;;;;;7.87;6.33;;;15.20;99.90;;;;;;4957966;28;20236;-89
2022/10/02 07:00:20;;;;;;;6.87;6.27;;;15.20;99.90;;;;;;4958031;28;20238;-90
2022/10/02 07:03:21;;;;;;;7.27;6.57;;;15.10;99.90;;;;;;4957386;28;20205;-90
2022/10/02 07:06:22;;;;;;;6.50;5.87;;;15.10;99.90;;;;;;4957892;28;20219;-90
2022/10/02 07:09:27;;;;;;;7.07;6.20;;;15.10;99.90;;;;;;4958127;28;20212;-91
2022/10/02 07:12:10;;;;;;;6.30;5.70;;;15.10;99.90;;;;;;4944911;28;20212;-90
2022/10/02 07:15:03;;;;;;;8.63;6.40;;;15.00;99.90;;;;;;4957982;28;20227;-91
2022/10/02 07:17:49;;;;;;;8.87;6.13;;;15.00;99.90;;;;;;4957926;28;20523;-90
2022/10/02 07:20:30;;;;;;;6.70;6.00;;;15.00;99.90;;;;;;4957760;28;20207;-91
2022/10/02 07:23:44;;;;;;;7.37;6.40;;;14.90;99.90;;;;;;4957492;28;20243;-91
2022/10/02 07:26:40;;;;;;;8.57;6.50;;;14.90;99.90;;;;;;4961278;28;20566;-92
2022/10/02 07:29:23;;;;;;;7.17;6.47;;;14.90;99.90;;;;;;4957855;28;20563;-90
2022/10/02 07:32:09;;;;;;;7.57;6.23;;;14.90;99.90;;;;;;4958452;28;20211;-90
2022/10/02 07:34:50;;;;;;;8.30;6.27;;;14.80;99.90;;;;;;4958194;28;20218;-91
2022/10/02 07:37:34;;;;;;;8.20;6.20;;;14.80;99.90;;;;;;4960084;28;20227;-92
2022/10/02 07:40:22;;;;;;;7.43;6.30;;;14.80;99.90;;;;;;4956988;28;20204;-91
2022/10/02 07:43:14;;;;;;;6.70;6.03;;;14.80;99.90;;;;;;4956218;28;20222;-90
2022/10/02 07:45:52;;;;;;;7.17;6.10;;;14.80;99.90;;;;;;4957590;28;20729;-91
2022/10/02 07:48:42;;;;;;;7.37;5.93;;;14.70;99.90;;;;;;4957067;28;20230;-91
2022/10/02 07:51:50;;;;;;;6.87;6.17;;;14.70;99.90;;;;;;4956684;28;20216;-90
2022/10/02 07:54:37;;;;;;;7.83;5.97;;;14.60;99.90;;;;;;4957025;28;20223;-91
2022/10/02 07:57:21;;;;;;;7.00;5.97;;;14.60;99.90;;;;;;4956384;28;20672;-90
2022/10/02 08:00:00;;;;;;;6.83;6.23;;;14.60;99.90;;;;;;4955318;28;20219;-90
2022/10/02 08:02:40;;;;;;;6.33;5.73;;;14.50;99.90;;;;;;4955837;28;20287;-91
2022/10/02 08:05:19;;;;;;;9.73;6.00;;;14.50;99.90;;;;;;4956622;28;20295;-90
2022/10/02 08:07:53;;;;;;;7.90;5.77;;;14.50;99.90;;;;;;4956436;28;20222;-89
2022/10/02 08:10:27;;;;;;;7.90;6.10;;;14.50;99.90;;;;;;4957073;28;20211;-91
2022/10/02 08:13:05;;;;;;;7.23;6.53;;;14.40;99.90;;;;;;4955854;28;20211;-91
2022/10/02 08:15:40;;;;;;;7.23;6.53;;;14.30;99.90;;;;;;4957036;28;20222;-90
2022/10/02 08:18:18;;;;;;;6.90;6.13;;;14.30;99.90;;;;;;4956681;28;20242;-91
2022/10/02 08:21:06;;;;;;;7.30;6.60;;;14.30;99.90;;;;;;4956465;29;20210;-90
2022/10/02 08:23:41;;;;;;;7.07;6.27;;;14.20;99.90;;;;;;4956113;28;20283;-91
2022/10/02 08:26:20;;;;;;;8.67;6.70;;;14.20;99.90;;;;;;4957282;28;20202;-91
2022/10/02 08:28:56;;;;;;;8.37;6.33;;;14.20;99.90;;;;;;4956462;28;20204;-91
2022/10/02 08:31:29;;;;;;;9.27;7.03;;;14.10;99.90;;;;;;4956467;28;20218;-91
2022/10/02 08:34:05;;;;;;;7.57;6.60;;;14.10;99.90;;;;;;4955774;28;20298;-90
2022/10/02 08:37:01;;;;;;;8.53;7.03;;;14.10;99.90;;;;;;4956738;28;20564;-90
2022/10/02 08:40:12;;;;;;;8.97;6.17;;;14.00;99.90;;;;;;4955603;29;20242;-91
2022/10/02 08:43:16;;;;;;;7.37;6.57;;;14.00;99.90;;;;;;4922341;28;20222;-91
2022/10/02 08:46:28;;;;;;;10.40;6.77;;;14.00;99.90;;;;;;4956165;28;20215;-91
2022/10/02 08:49:25;;;;;;;7.37;6.37;;;14.00;99.90;;;;;;4958132;28;20634;-90
2022/10/02 08:52:26;;;;;;;6.90;6.10;;;13.90;99.90;;;;;;4955161;28;20218;-90
2022/10/02 08:55:19;;;;;;;7.07;6.37;;;13.90;99.90;;;;;;4956736;28;20207;-91
2022/10/02 08:58:32;;;;;;;7.60;6.77;;;13.90;99.90;;;;;;4957280;29;20223;-91
2022/10/02 09:01:24;;;;;;;9.13;6.03;;;13.80;99.90;;;;;;4957874;28;20200;-93
2022/10/02 09:04:39;;;;;;;7.53;6.83;;;13.80;99.90;;;;;;4955671;28;20215;-90
2022/10/02 09:07:53;;;;;;;8.00;5.90;;;13.70;99.90;;;;;;4893582;29;21059;-91
2022/10/02 09:11:13;;;;;;;6.97;6.27;;;13.70;99.90;;;;;;4955326;28;20227;-90
2022/10/02 09:14:11;;;;;;;7.20;6.50;;;13.70;99.90;;;;;;4951411;28;20672;-89
2022/10/02 09:17:10;;;;;;;9.17;6.63;;;13.70;99.90;;;;;;4954993;28;20204;-90
2022/10/02 09:19:50;;;;;;;7.60;6.90;;;13.60;99.90;;;;;;4955861;28;20231;-90
2022/10/02 09:22:54;;;;;;;10.20;7.50;;;13.60;99.90;;;;;;4955677;28;20215;-90
2022/10/02 09:25:37;;;;;;;8.07;6.80;;;13.60;99.90;;;;;;4965114;28;20206;-90
2022/10/02 09:28:40;;;;;;;7.10;6.40;;;13.60;99.90;;;;;;4973065;28;20686;-91
2022/10/02 09:31:43;;;;;;;11.27;6.53;;;13.60;99.90;;;;;;4928174;28;20672;-91
2022/10/02 09:34:47;;;;;;;7.70;6.97;;;13.60;99.90;;;;;;4932703;28;20210;-90
2022/10/02 09:37:53;;;;;;;13.17;7.33;;;13.50;99.90;;;;;;4950336;29;20211;-90
2022/10/02 09:40:54;;;;;;;7.70;6.90;;;13.50;99.90;;;;;;4955286;28;20246;-91
2022/10/02 09:44:00;;;;;;;9.53;7.67;;;13.50;99.90;;;;;;4938877;28;20212;-91
2022/10/02 09:47:04;;;;;;;7.80;7.00;;;13.50;99.90;;;;;;4956799;29;20649;-91
2022/10/02 09:50:10;;;;;;;7.53;6.83;;;13.50;99.90;;;;;;4953336;28;20215;-90
2022/10/02 09:53:17;;;;;;;7.90;6.60;;;13.50;99.90;;;;;;4952397;28;20290;-91
2022/10/02 09:56:33;;;;;;;8.37;6.70;;;13.40;99.90;;;;;;4955504;28;20203;-90
2022/10/02 09:59:39;;;;;;;8.70;7.37;;;13.40;99.90;;;;;;4955381;28;20271;-91
2022/10/02 10:02:34;;;;;;;9.07;7.00;;;13.40;99.90;;;;;;4933646;28;20687;-90
2022/10/02 10:05:37;;;;;;;10.13;6.73;;;13.40;99.90;;;;;;4956488;28;20215;-90
2022/10/02 10:08:27;;;;;;;7.70;6.87;;;13.40;99.90;;;;;;4956227;29;20218;-90
2022/10/02 10:11:11;;;;;;;9.20;7.37;;;13.40;99.90;;;;;;4956080;28;20239;-90
2022/10/02 10:14:12;;;;;;;10.03;7.23;;;13.40;99.90;;;;;;4955183;28;20214;-90
2022/10/02 10:17:21;;;;;;;9.17;7.00;;;13.40;99.90;;;;;;4955168;29;20215;-90
2022/10/02 10:20:29;;;;;;;7.60;6.87;;;13.40;99.90;;;;;;4958053;28;20559;-91
2022/10/02 10:23:17;;;;;;;7.67;6.87;;;13.40;99.90;;;;;;4958728;28;20216;-91
2022/10/02 10:26:07;;;;;;;7.83;7.03;;;13.40;99.90;;;;;;4959800;28;20219;-90
2022/10/02 10:29:08;;;;;;;7.60;6.90;;;13.30;99.90;;;;;;4948025;29;20668;-91
2022/10/02 10:32:11;;;;;;;10.37;7.27;;;13.30;99.90;;;;;;4960689;28;20230;-92
2022/10/02 10:35:14;;;;;;;7.80;6.93;;;13.30;99.90;;;;;;4952341;28;20240;-90
2022/10/02 10:38:33;;;;;;;9.20;6.73;;;13.30;99.90;;;;;;4956417;29;20223;-91
2022/10/02 10:41:26;;;;;;;8.80;6.43;;;13.30;99.90;;;;;;4959195;28;20207;-90
2022/10/02 10:44:25;;;;;;;7.43;6.73;;;13.30;99.90;;;;;;4958570;28;20215;-91
2022/10/02 10:47:19;;;;;;;7.80;7.00;;;13.30;99.90;;;;;;4958593;29;20683;-90
2022/10/02 10:50:19;;;;;;;7.97;7.17;;;13.30;99.90;;;;;;4958765;28;20673;-90
2022/10/02 10:53:17;;;;;;;8.77;7.43;;;13.30;99.90;;;;;;4958141;28;20208;-90
2022/10/02 10:56:25;;;;;;;8.33;7.13;;;13.30;99.90;;;;;;4958774;28;20215;-90
2022/10/02 10:59:41;;;;;;;7.37;6.30;;;13.20;99.90;;;;;;4947027;28;20576;-91
2022/10/02 11:02:44;;;;;;;7.87;7.00;;;13.20;99.90;;;;;;4935157;28;20235;-91
2022/10/02 11:05:41;;;;;;;7.73;6.80;;;13.20;99.90;;;;;;4944950;29;20255;-90
2022/10/02 11:08:54;;;;;;;10.00;7.07;;;13.20;99.90;;;;;;4957232;28;20211;-91
2022/10/02 11:11:35;;;;;;;7.50;6.70;;;13.20;99.90;;;;;;4958735;28;20212;-90
2022/10/02 11:14:21;;;;;;;7.40;6.63;;;13.20;99.90;;;;;;4957015;29;20738;-91
2022/10/02 11:17:27;;;;;;;7.63;6.73;;;13.20;99.90;;;;;;4958385;28;21027;-89
2022/10/02 11:20:29;;;;;;;7.73;6.50;;;13.20;99.90;;;;;;4957440;28;20574;-90
2022/10/02 11:23:54;;;;;;;7.83;7.03;;;13.20;99.90;;;;;;4957410;29;20249;-91
2022/10/02 11:26:37;;;;;;;8.20;7.30;;;13.10;99.90;;;;;;4924679;28;20223;-91
2022/10/02 11:29:40;;;;;;;10.47;7.63;;;13.10;99.90;;;;;;4961526;28;20208;-89
2022/10/02 11:32:37;;;;;;;8.63;7.03;;;13.10;99.90;;;;;;4932031;28;20212;-90
2022/10/02 11:35:25;;;;;;;9.27;7.97;;;13.10;99.90;;;;;;4959655;28;20203;-90
2022/10/02 11:38:18;;;;;;;9.80;7.43;;;13.10;99.90;;;;;;4958441;28;20219;-91
2022/10/02 11:41:21;;;;;;;8.43;7.57;;;13.10;99.90;;;;;;4957682;28;20235;-91
2022/10/02 11:44:17;;;;;;;10.73;7.90;;;13.10;99.90;;;;;;4956971;28;20207;-90
2022/10/02 11:47:19;;;;;;;10.77;7.97;;;13.10;99.90;;;;;;4958124;28;20217;-91
2022/10/02 11:50:37;;;;;;;8.87;7.07;;;13.10;99.90;;;;;;4955633;29;20215;-90
2022/10/02 11:53:24;;;;;;;12.53;7.87;;;13.00;99.90;;;;;;4957316;28;20215;-92
2022/10/02 11:56:07;;;;;;;9.43;8.03;;;13.00;99.90;;;;;;4960241;28;20265;-92
2022/10/02 11:58:49;;;;;;;8.67;7.77;;;13.00;99.90;;;;;;4956360;28;20226;-90
2022/10/02 12:01:31;;;;;;;13.47;7.53;;;13.00;99.90;;;;;;4957093;28;20247;-90
2022/10/02 12:04:30;;;;;;;8.73;7.30;;;12.90;99.90;;;;;;4959017;28;20215;-90
2022/10/02 12:07:23;;;;;;;9.17;7.97;;;12.90;99.90;;;;;;4955263;28;20226;-91
2022/10/02 12:10:13;;;;;;;9.13;7.63;;;12.90;99.90;;;;;;4958197;28;20208;-90
2022/10/02 12:12:56;;;;;;;8.97;8.07;;;12.90;99.90;;;;;;4957101;28;20673;-92
2022/10/02 12:15:38;;;;;;;9.40;7.60;;;12.80;99.90;;;;;;4959883;28;20241;-90
2022/10/02 12:18:41;;;;;;;9.27;8.27;;;12.80;99.90;;;;;;4959659;28;20212;-91
2022/10/02 12:27:41;;;;;;;12.47;8.70;;;12.70;99.90;;;;;;4938170;29;20236;-90
2022/10/02 12:30:15;;;;;;;10.07;9.07;;;12.70;99.90;;;;;;4938098;29;20216;-91
2022/10/02 12:33:15;;;;;;;11.33;8.93;;;12.70;99.90;;;;;;4937547;29;20212;-92
2022/10/02 12:36:13;;;;;;;13.20;9.67;;;12.70;99.90;;;;;;4939849;29;20212;-90
2022/10/02 12:38:57;;;;;;;10.60;9.17;;;12.70;99.90;;;;;;4941389;29;20220;-91
2022/10/02 12:41:47;;;;;;;10.40;9.40;;;12.70;99.90;;;;;;4953829;28;20223;-91
2022/10/02 12:44:43;;;;;;;11.47;9.10;;;12.70;99.90;;;;;;4956431;28;20215;-92
2022/10/02 12:47:40;;;;;;;14.30;9.07;;;12.70;99.90;;;;;;4957126;29;20222;-92
2022/10/02 12:50:34;;;;;;;11.20;9.50;;;12.70;99.90;;;;;;4950564;29;20230;-91
2022/10/02 12:53:44;;;;;;;10.93;9.83;;;12.60;99.90;;;;;;4938242;29;20683;-90
2022/10/02 12:56:56;;;;;;;12.80;9.77;;;12.60;99.90;;;;;;4937295;29;20216;-91
2022/10/02 12:59:35;;;;;;;11.50;9.60;;;12.60;99.90;;;;;;4937201;29;20242;-91
2022/10/02 13:02:46;;;;;;;12.37;9.47;;;12.60;99.90;;;;;;4936517;29;20219;-91
2022/10/02 13:06:00;;;;;;;11.40;10.20;;;12.60;99.90;;;;;;4929551;29;20216;-91
2022/10/02 13:09:04;;;;;;;11.13;8.50;;;12.50;99.90;;;;;;4937658;29;20203;-91
2022/10/02 13:11:52;;;;;;;13.70;10.17;;;12.50;99.90;;;;;;4958270;28;20245;-90
2022/10/02 13:14:48;;;;;;;10.47;9.07;;;12.50;99.90;;;;;;4956999;29;20204;-91
2022/10/02 13:17:31;;;;;;;12.23;10.00;;;12.50;99.90;;;;;;4927293;28;20216;-90
2022/10/02 13:20:16;;;;;;;10.83;9.73;;;12.50;99.90;;;;;;4955847;28;20219;-90
2022/10/02 13:22:53;;;;;;;11.63;9.60;;;12.50;99.90;;;;;;4957078;28;20212;-91
2022/10/02 13:25:37;;;;;;;13.70;10.13;;;12.50;99.90;;;;;;4956704;28;20214;-90
2022/10/02 13:28:30;;;;;;;10.37;9.27;;;12.50;99.90;;;;;;4955771;28;20231;-91
2022/10/02 13:31:10;;;;;;;11.63;9.43;;;12.50;99.90;;;;;;4957093;28;20673;-90
2022/10/02 13:34:03;;;;;;;11.23;10.03;;;12.40;99.90;;;;;;4954852;28;20231;-90
2022/10/02 13:36:46;;;;;;;12.23;10.40;;;12.50;99.90;;;;;;4954535;29;20584;-90
2022/10/02 13:39:32;;;;;;;11.50;9.80;;;12.50;99.90;;;;;;4955723;29;20212;-91
2022/10/02 13:42:30;;;;;;;13.03;10.30;;;12.50;99.90;;;;;;4954792;28;20241;-90
2022/10/02 13:45:12;;;;;;;12.93;10.73;;;12.40;99.90;;;;;;4953690;29;20215;-90
2022/10/02 13:47:51;;;;;;;12.07;10.70;;;12.40;99.90;;;;;;4956031;28;20223;-89
2022/10/02 13:50:44;;;;;;;13.33;11.23;;;12.40;99.90;;;;;;4955778;29;20229;-90
2022/10/02 13:53:40;;;;;;;13.00;11.53;;;12.40;99.90;;;;;;4954584;28;20215;-91
2022/10/02 13:56:27;;;;;;;13.00;11.13;;;12.40;99.90;;;;;;4955262;28;20208;-90
2022/10/02 13:59:25;;;;;;;13.87;11.83;;;12.40;99.90;;;;;;4958937;28;20262;-91
2022/10/02 14:02:14;;;;;;;13.97;11.23;;;12.40;99.90;;;;;;4958264;28;20242;-91
2022/10/02 14:04:56;;;;;;;12.07;10.77;;;12.40;99.90;;;;;;4957930;29;20217;-91
2022/10/02 14:07:55;;;;;;;15.13;11.00;;;12.40;99.90;;;;;;4958804;28;20214;-91
2022/10/02 14:10:37;;;;;;;14.30;11.70;;;12.40;99.90;;;;;;4959099;28;20207;-91
2022/10/02 14:13:27;;;;;;;13.13;11.20;;;12.40;99.90;;;;;;4958420;29;20222;-90
2022/10/02 14:16:11;;;;;;;12.20;10.63;;;12.40;99.90;;;;;;4928621;29;20578;-90
2022/10/02 14:19:12;;;;;;;14.30;11.63;;;12.40;99.90;;;;;;4953556;29;20207;-91
2022/10/02 14:21:55;;;;;;;11.63;10.43;;;12.40;99.90;;;;;;4941092;29;20694;-90
2022/10/02 14:25:03;;;;;;;13.07;11.47;;;12.30;99.90;;;;;;4942779;28;20200;-89
2022/10/02 14:28:14;;;;;;;12.93;11.43;;;12.40;99.90;;;;;;4940622;29;20215;-89